Time;durP1;ratioP1;P1;durP2;ratioP2;P2;SDS_P1;SDS_P2;PMS_P1;PMS_P2;Temp;Humidity;BMP_temperature;BMP_pressure;BME280_temperature;BME280_humidity;BME280_pressure;Samples;Min_cycle;Max_cycle;Signal;HPM_P1;HPM_P2
2021/12/15 00:01:04;;;;;;;3.30;3.00;;;;;;;5.82;100.00;99827.78;5003836;28;20030;-62
2021/12/15 00:03:30;;;;;;;3.33;3.03;;;;;;;5.86;100.00;99831.22;4999670;28;20110;-61
2021/12/15 00:05:56;;;;;;;3.97;3.53;;;;;;;5.78;100.00;99827.69;5004072;28;20125;-62
2021/12/15 00:08:22;;;;;;;5.53;3.27;;;;;;;5.70;100.00;99826.69;4998535;28;20042;-61
2021/12/15 00:10:48;;;;;;;3.27;2.97;;;;;;;5.70;100.00;99830.09;5007752;28;20049;-59
2021/12/15 00:13:15;;;;;;;4.13;3.70;;;;;;;5.73;100.00;99829.31;5010643;28;20048;-59
2021/12/15 00:15:42;;;;;;;4.00;3.57;;;;;;;5.71;100.00;99828.41;5001480;28;20097;-60
2021/12/15 00:18:08;;;;;;;3.20;2.90;;;;;;;5.63;100.00;99832.50;4997135;28;20038;-59
2021/12/15 00:20:35;;;;;;;3.57;3.23;;;;;;;5.71;100.00;99830.94;5007919;28;20099;-60
2021/12/15 00:23:01;;;;;;;3.23;2.90;;;;;;;5.71;100.00;99830.94;5005838;28;20044;-61
2021/12/15 00:25:30;;;;;;;4.20;3.20;;;;;;;5.64;100.00;99834.22;5002272;28;20037;-60
2021/12/15 00:27:56;;;;;;;3.53;3.20;;;;;;;5.65;100.00;99838.44;5000012;28;20053;-59
2021/12/15 00:30:22;;;;;;;3.77;2.97;;;;;;;5.67;100.00;99840.22;5002039;28;20425;-58
2021/12/15 00:32:49;;;;;;;4.33;3.20;;;;;;;5.69;100.00;99841.09;5005438;28;20037;-60
2021/12/15 00:35:15;;;;;;;4.17;2.93;;;;;;;5.64;100.00;99844.38;4999510;28;20037;-59
2021/12/15 00:37:40;;;;;;;5.80;2.97;;;;;;;5.58;100.00;99842.56;4999430;28;20037;-61
2021/12/15 00:40:10;;;;;;;3.80;3.23;;;;;;;5.68;100.00;99841.94;5002659;28;20109;-60
2021/12/15 00:42:35;;;;;;;4.63;3.53;;;;;;;5.55;100.00;99831.47;5005230;28;20117;-63
2021/12/15 00:45:01;;;;;;;3.77;3.10;;;;;;;5.61;100.00;99839.22;4999030;28;20144;-60
2021/12/15 00:47:27;;;;;;;4.43;3.53;;;;;;;5.66;100.00;99833.41;5009061;28;20045;-61
2021/12/15 00:49:52;;;;;;;5.30;3.67;;;;;;;5.57;100.00;99835.75;5003837;28;20973;-62
2021/12/15 00:52:18;;;;;;;3.87;3.37;;;;;;;5.62;100.00;99844.34;5004254;28;20479;-62
2021/12/15 00:54:44;;;;;;;4.83;3.53;;;;;;;5.56;100.00;99840.84;5000153;28;20033;-62
2021/12/15 00:57:09;;;;;;;4.57;4.13;;;;;;;5.51;100.00;99841.59;5000665;28;20566;-62
2021/12/15 00:59:35;;;;;;;6.10;4.17;;;;;;;5.63;100.00;99841.00;5005278;28;20033;-62
2021/12/15 01:02:01;;;;;;;5.13;3.43;;;;;;;5.66;100.00;99846.13;5002787;28;20061;-62
2021/12/15 01:04:29;;;;;;;4.07;3.43;;;;;;;5.61;100.00;99844.31;4999360;28;20040;-61
2021/12/15 01:06:59;;;;;;;3.07;2.77;;;;;;;5.58;100.00;99854.44;5000970;28;20038;-61
2021/12/15 01:09:32;;;;;;;2.67;2.10;;;;;;;5.53;100.00;99859.41;5003046;28;20119;-61
2021/12/15 01:20:13;;;;;;;1.77;1.67;;;;;;;5.59;100.00;99862.09;5009126;28;20065;-60
2021/12/15 01:22:43;;;;;;;2.20;1.40;;;;;;;5.61;100.00;99855.34;5003831;28;20034;-62
2021/12/15 01:25:17;;;;;;;1.43;1.33;;;;;;;5.52;100.00;99858.56;5004666;28;20251;-61
2021/12/15 01:27:44;;;;;;;3.53;1.20;;;;;;;5.44;100.00;99857.53;5004088;28;20034;-62
2021/12/15 01:30:12;;;;;;;1.40;1.10;;;;;;;5.53;100.00;99860.28;5004143;28;20458;-62
2021/12/15 01:32:38;;;;;;;1.00;0.90;;;;;;;5.42;100.00;99864.28;4999021;28;20453;-63
2021/12/15 01:35:04;;;;;;;1.47;1.37;;;;;;;5.41;100.00;99860.03;5002437;28;20026;-61
2021/12/15 01:37:29;;;;;;;1.00;1.00;;;;;;;5.41;100.00;99861.72;5006361;28;20084;-61
2021/12/15 01:39:56;;;;;;;1.33;1.17;;;;;;;5.39;100.00;99869.28;5002785;28;20080;-61
2021/12/15 01:42:25;;;;;;;1.27;0.90;;;;;;;5.56;100.00;99866.28;4998623;28;20056;-62
2021/12/15 01:47:35;;;;;;;2.40;1.30;;;;;;;5.38;100.00;99862.50;5006086;28;20033;-60
2021/12/15 01:50:01;;;;;;;1.13;1.03;;;;;;;5.43;100.00;99867.69;5001582;28;20030;-62
2021/12/15 01:52:32;;;;;;;1.20;1.10;;;;;;;5.40;100.00;99865.06;5002683;28;20713;-59
2021/12/15 01:55:04;;;;;;;1.53;1.10;;;;;;;5.47;100.00;99870.31;5003194;28;20037;-61
2021/12/15 01:57:31;;;;;;;1.30;1.20;;;;;;;5.46;100.00;99873.72;5003330;28;20108;-60
2021/12/15 01:59:58;;;;;;;1.00;0.90;;;;;;;5.37;100.00;99878.59;5000078;28;20504;-60
2021/12/15 02:02:24;;;;;;;1.30;1.20;;;;;;;5.40;100.00;99871.03;5003453;28;20059;-63
2021/12/15 02:04:52;;;;;;;2.10;0.90;;;;;;;5.41;100.00;99877.81;5008999;28;20156;-60
2021/12/15 02:07:19;;;;;;;1.07;0.97;;;;;;;5.43;100.00;99868.53;5005468;28;20038;-61
2021/12/15 02:12:19;;;;;;;1.60;1.50;;;;;;;5.33;100.00;99859.00;5001718;28;20171;-61
2021/12/15 02:14:44;;;;;;;2.17;1.50;;;;;;;5.28;100.00;99862.25;5000592;28;20551;-60
2021/12/15 02:17:11;;;;;;;1.40;1.30;;;;;;;5.27;100.00;99874.13;5008708;28;20040;-61
2021/12/15 02:19:36;;;;;;;1.17;1.13;;;;;;;5.30;100.00;99865.72;5007685;28;20080;-59
2021/12/15 02:22:03;;;;;;;3.13;1.50;;;;;;;5.29;100.00;99879.25;5003075;28;20499;-60
2021/12/15 02:24:33;;;;;;;1.40;1.30;;;;;;;5.31;100.00;99870.81;5002004;28;20189;-61
2021/12/15 02:27:00;;;;;;;2.03;1.37;;;;;;;5.35;100.00;99872.59;5002831;28;20306;-59
2021/12/15 02:29:31;;;;;;;1.70;1.60;;;;;;;5.36;100.00;99871.78;4997088;28;20381;-60
2021/12/15 02:32:14;;;;;;;1.37;1.27;;;;;;;5.37;100.00;99875.19;5002280;28;20507;-60
2021/12/15 02:37:24;;;;;;;1.17;1.17;;;;;;;5.40;100.00;99876.09;5005735;28;20039;-61
2021/12/15 02:40:04;;;;;;;2.00;1.77;;;;;;;5.39;100.00;99874.38;5010969;28;20068;-62
2021/12/15 02:42:38;;;;;;;1.33;1.30;;;;;;;5.39;100.00;99874.38;5003407;28;20520;-61
2021/12/15 02:45:07;;;;;;;1.10;1.00;;;;;;;5.28;100.00;99874.97;5006663;28;20496;-62
2021/12/15 02:47:33;;;;;;;1.50;1.40;;;;;;;5.25;100.00;99875.78;5012994;28;20380;-61
2021/12/15 02:50:01;;;;;;;1.40;1.30;;;;;;;5.35;100.00;99862.44;5006305;28;20030;-62
2021/12/15 02:52:27;;;;;;;1.50;1.40;;;;;;;5.27;100.00;99850.38;5000734;28;20076;-61
2021/12/15 02:54:53;;;;;;;1.30;1.23;;;;;;;5.26;100.00;99862.22;4999857;28;20038;-60
2021/12/15 02:57:19;;;;;;;1.60;1.50;;;;;;;5.28;100.00;99865.66;5002486;28;20111;-63
2021/12/15 03:00:06;;;;;;;1.83;1.37;;;;;;;5.31;100.00;99865.72;5002190;28;20025;-62
2021/12/15 03:06:05;;;;;;;1.30;1.20;;;;;;;5.29;100.00;99877.56;4998088;28;20480;-60
2021/12/15 03:08:16;;;;;;;1.80;1.47;;;;;;;5.25;100.00;99875.78;4989805;28;20042;-61
2021/12/15 03:16:16;;;;;;;2.67;1.90;;;;;;;5.37;100.00;99875.19;5001380;28;20071;-59
2021/12/15 03:18:41;;;;;;;2.47;1.77;;;;;;;5.34;100.00;99875.13;5000522;28;20026;-56
2021/12/15 03:21:12;;;;;;;3.10;2.20;;;;;;;5.41;100.00;99877.81;4997172;28;20601;-58
2021/12/15 03:23:53;;;;;;;4.13;3.03;;;;;;;5.36;100.00;99878.53;5001275;28;20222;-56
2021/12/15 03:26:29;;;;;;;3.03;2.73;;;;;;;5.40;100.00;99875.25;5005681;28;20048;-58
2021/12/15 03:34:40;;;;;;;4.45;4.00;;;;;;;5.38;100.00;99884.53;4999548;28;20052;-55
2021/12/15 03:37:23;;;;;;;4.10;3.47;;;;;;;5.39;100.00;99882.00;5002755;28;20038;-58
2021/12/15 03:39:52;;;;;;;3.70;3.13;;;;;;;5.36;100.00;99874.31;4995135;28;20039;-58
2021/12/15 03:42:23;;;;;;;5.40;3.83;;;;;;;5.36;100.00;99893.81;4995314;28;20030;-58
2021/12/15 03:44:49;;;;;;;4.17;3.20;;;;;;;5.37;100.00;99875.19;4998796;28;20116;-59
2021/12/15 03:47:22;;;;;;;5.20;3.43;;;;;;;5.46;100.00;99873.72;5002105;28;20109;-58
2021/12/15 03:49:47;;;;;;;4.67;3.00;;;;;;;5.38;100.00;99882.00;4995197;28;20582;-61
2021/12/15 03:52:13;;;;;;;4.10;3.40;;;;;;;5.38;100.00;99894.72;4997979;28;20592;-60
2021/12/15 03:54:39;;;;;;;4.60;3.33;;;;;;;5.37;100.00;99876.03;4999772;28;20475;-60
2021/12/15 03:57:05;;;;;;;4.00;3.33;;;;;;;5.36;100.00;99893.81;4999302;28;20443;-61
2021/12/15 03:59:33;;;;;;;4.47;3.20;;;;;;;5.38;100.00;99884.53;4995868;28;20061;-60
2021/12/15 04:02:00;;;;;;;4.57;3.73;;;;;;;5.35;100.00;99892.06;4999639;28;20038;-60
2021/12/15 04:04:26;;;;;;;4.07;3.07;;;;;;;5.36;100.00;99887.03;5003657;28;20062;-60
2021/12/15 04:06:51;;;;;;;3.30;2.60;;;;;;;5.29;100.00;99882.66;5000753;28;21010;-60
2021/12/15 04:09:18;;;;;;;2.90;2.27;;;;;;;5.31;100.00;99870.81;4996396;28;21006;-60
2021/12/15 04:11:45;;;;;;;3.37;2.80;;;;;;;5.26;100.00;99869.03;5001236;28;20488;-61
2021/12/15 04:14:21;;;;;;;2.90;2.60;;;;;;;5.31;100.00;99869.94;4998234;28;20034;-60
2021/12/15 04:17:02;;;;;;;1.97;1.80;;;;;;;5.30;100.00;99883.50;4999617;28;20036;-61
2021/12/15 04:19:28;;;;;;;3.70;2.07;;;;;;;5.32;100.00;99892.88;4997063;28;20049;-61
2021/12/15 04:21:54;;;;;;;3.30;2.07;;;;;;;5.32;100.00;99899.66;5001871;28;20120;-61
2021/12/15 04:24:20;;;;;;;1.93;1.60;;;;;;;5.33;100.00;99894.59;4999426;28;20065;-60
2021/12/15 04:26:47;;;;;;;1.67;1.57;;;;;;;5.31;100.00;99903.00;4996998;28;20486;-60
2021/12/15 04:29:13;;;;;;;2.00;1.90;;;;;;;5.27;100.00;99898.69;4997164;28;20030;-60
2021/12/15 04:31:44;;;;;;;1.80;1.70;;;;;;;5.35;100.00;99907.34;4998079;28;20034;-61
2021/12/15 04:34:11;;;;;;;1.83;1.73;;;;;;;5.30;100.00;99904.72;5003132;28;20033;-62
2021/12/15 04:36:42;;;;;;;1.57;1.47;;;;;;;5.33;100.00;99903.91;4995207;28;20041;-61
2021/12/15 04:39:11;;;;;;;1.70;1.60;;;;;;;5.29;100.00;99914.84;4997277;28;20084;-62
2021/12/15 04:41:37;;;;;;;1.73;1.60;;;;;;;5.33;100.00;99902.22;5000427;28;20492;-61
2021/12/15 04:44:11;;;;;;;2.30;1.70;;;;;;;5.34;100.00;99910.72;5003796;28;20025;-62
2021/12/15 04:46:39;;;;;;;2.53;1.60;;;;;;;5.38;100.00;99910.81;4996658;28;20038;-61
2021/12/15 04:49:08;;;;;;;3.30;1.87;;;;;;;5.35;100.00;99908.19;4996445;28;20786;-61
2021/12/15 04:51:34;;;;;;;2.27;1.83;;;;;;;5.33;100.00;99914.94;4996043;28;20033;-62
2021/12/15 04:54:02;;;;;;;1.40;1.30;;;;;;;5.29;100.00;99918.25;4999558;28;20459;-62
2021/12/15 04:56:28;;;;;;;2.03;1.80;;;;;;;5.32;100.00;99932.69;4995758;28;20095;-62
2021/12/15 04:58:55;;;;;;;2.33;1.70;;;;;;;5.35;100.00;99928.53;4995113;28;20476;-62
2021/12/15 05:01:22;;;;;;;1.20;1.10;;;;;;;5.31;100.00;99934.38;5000111;28;20030;-61
2021/12/15 05:03:47;;;;;;;1.57;1.43;;;;;;;5.26;100.00;99932.56;4996032;28;20538;-60
2021/12/15 05:06:14;;;;;;;2.10;1.73;;;;;;;5.27;100.00;99935.13;4999308;28;20555;-62
2021/12/15 05:08:40;;;;;;;1.40;1.30;;;;;;;5.25;100.00;99931.72;5004564;28;20030;-60
2021/12/15 05:11:08;;;;;;;1.43;1.33;;;;;;;5.28;100.00;99939.41;5008193;28;20037;-60
2021/12/15 05:13:36;;;;;;;1.50;1.40;;;;;;;5.24;100.00;99936.75;5007194;28;20041;-59
2021/12/15 05:16:06;;;;;;;1.53;1.43;;;;;;;5.25;100.00;99934.25;5009225;28;20048;-61
2021/12/15 05:18:32;;;;;;;2.17;1.63;;;;;;;5.32;100.00;99933.56;5005585;28;20025;-61
2021/12/15 05:20:59;;;;;;;1.60;1.50;;;;;;;5.26;100.00;99932.56;5003847;28;20033;-62
2021/12/15 05:23:31;;;;;;;1.40;1.30;;;;;;;5.31;100.00;99936.91;4999781;28;20559;-62
2021/12/15 05:25:59;;;;;;;1.97;1.53;;;;;;;5.28;100.00;99943.63;5016770;28;20236;-61
2021/12/15 05:28:25;;;;;;;2.50;1.80;;;;;;;5.21;100.00;99935.00;5002604;28;20029;-61
2021/12/15 05:30:51;;;;;;;1.63;1.50;;;;;;;5.30;100.00;99945.41;5001935;28;20034;-61
2021/12/15 05:33:16;;;;;;;3.77;1.70;;;;;;;5.28;100.00;99947.03;4999235;28;20055;-61
2021/12/15 05:35:43;;;;;;;2.13;1.93;;;;;;;5.33;100.00;99959.84;5005049;28;20059;-60
2021/12/15 05:38:09;;;;;;;1.97;1.50;;;;;;;5.27;100.00;99960.56;5002225;28;20030;-61
2021/12/15 05:40:36;;;;;;;2.47;1.77;;;;;;;5.32;100.00;99956.44;4999862;28;20356;-61
2021/12/15 05:43:02;;;;;;;2.33;2.13;;;;;;;5.24;100.00;99959.63;5009063;28;20384;-61
2021/12/15 05:45:32;;;;;;;2.60;2.07;;;;;;;5.33;100.00;99959.84;5001198;28;20022;-59
2021/12/15 05:47:58;;;;;;;2.10;1.90;;;;;;;5.31;100.00;99967.44;5001951;28;20553;-61
2021/12/15 05:50:27;;;;;;;2.13;1.77;;;;;;;5.40;100.00;99969.31;4997153;28;20026;-61
2021/12/15 05:52:53;;;;;;;2.83;2.37;;;;;;;5.43;100.00;99979.59;4999137;28;20041;-61
2021/12/15 05:55:19;;;;;;;2.87;2.60;;;;;;;5.35;100.00;99981.06;5002211;28;20042;-61
2021/12/15 05:57:46;;;;;;;2.60;2.40;;;;;;;5.38;100.00;99979.47;5005584;28;20415;-61
2021/12/15 06:00:18;;;;;;;2.83;2.30;;;;;;;5.52;100.00;99987.41;5000641;28;20053;-60
2021/12/15 06:02:43;;;;;;;2.97;2.50;;;;;;;5.43;100.00;99980.41;4999928;28;20045;-60
2021/12/15 06:05:11;;;;;;;3.40;3.10;;;;;;;5.50;100.00;99983.97;5002541;28;20038;-59
2021/12/15 06:07:37;;;;;;;3.07;2.80;;;;;;;5.56;100.00;99975.66;5002753;28;20545;-60
2021/12/15 06:10:08;;;;;;;3.30;3.00;;;;;;;5.52;100.00;99988.28;4999497;28;20100;-59
2021/12/15 06:12:34;;;;;;;3.87;2.50;;;;;;;5.57;100.00;99984.97;4999083;28;20026;-60
2021/12/15 06:14:59;;;;;;;3.47;3.07;;;;;;;5.53;100.00;99997.63;5004351;28;20118;-60
2021/12/15 06:17:26;;;;;;;8.13;4.30;;;;;;;5.57;100.00;100000.22;5007297;28;20200;-60
2021/12/15 06:19:53;;;;;;;3.40;2.80;;;;;;;5.62;100.00;100001.19;5012851;28;20029;-60
2021/12/15 06:22:24;;;;;;;3.37;3.07;;;;;;;5.62;100.00;99994.44;5011676;28;20038;-60
2021/12/15 06:24:51;;;;;;;3.57;2.90;;;;;;;5.67;100.00;99997.94;5004719;28;20034;-58
2021/12/15 06:27:19;;;;;;;3.00;2.63;;;;;;;5.68;100.00;100003.91;5002873;28;20076;-60
2021/12/15 06:29:47;;;;;;;4.20;2.77;;;;;;;5.75;100.00;99993.03;5004893;28;20219;-60
2021/12/15 06:32:12;;;;;;;2.77;2.53;;;;;;;5.69;100.00;100006.44;5005844;28;20391;-59
2021/12/15 06:34:38;;;;;;;2.67;2.40;;;;;;;5.67;100.00;100002.16;5014351;28;20042;-61
2021/12/15 06:37:04;;;;;;;5.03;4.37;;;;;;;5.75;100.00;100013.38;5007092;28;20111;-60
2021/12/15 06:39:30;;;;;;;5.70;4.20;;;;;;;5.76;100.00;100015.09;4999386;28;20141;-60
2021/12/15 06:41:56;;;;;;;5.30;3.40;;;;;;;5.84;100.00;100027.16;4993475;28;20562;-59
2021/12/15 06:44:21;;;;;;;5.57;3.73;;;;;;;5.80;100.00;100025.38;4992647;28;20439;-59
2021/12/15 07:00:00;;;;;;;3.37;2.83;;;;;;;5.72;100.00;100054.88;4992547;28;20117;-59
2021/12/15 07:02:25;;;;;;;6.43;3.97;;;;;;;5.74;100.00;100055.78;4992286;28;20060;-60
2021/12/15 07:04:51;;;;;;;6.13;3.80;;;;;;;5.80;100.00;100053.38;4988305;28;20428;-60
2021/12/15 07:07:17;;;;;;;6.70;3.57;;;;;;;5.76;100.00;100058.34;4989315;28;20069;-59
2021/12/15 07:09:43;;;;;;;4.50;3.63;;;;;;;5.75;100.00;100056.63;4992874;28;20457;-60
2021/12/15 07:12:09;;;;;;;4.60;4.03;;;;;;;5.76;100.00;100061.75;4973873;28;20038;-58
2021/12/15 07:14:35;;;;;;;5.53;3.67;;;;;;;5.78;100.00;100071.97;4992716;28;20026;-59
2021/12/15 07:17:07;;;;;;;3.93;3.10;;;;;;;5.78;100.00;100074.50;4993981;28;20503;-60
2021/12/15 07:19:44;;;;;;;4.40;3.40;;;;;;;5.74;100.00;100082.88;4978134;28;20077;-60
2021/12/15 07:22:28;;;;;;;3.50;3.00;;;;;;;5.76;100.00;100079.56;4989704;28;20113;-60
2021/12/15 07:24:53;;;;;;;3.73;3.00;;;;;;;5.78;100.00;100079.59;4988442;28;20118;-60
2021/12/15 07:27:18;;;;;;;3.77;3.27;;;;;;;5.74;100.00;100086.31;4990876;28;20213;-59
2021/12/15 07:29:44;;;;;;;3.67;3.30;;;;;;;5.78;100.00;100082.13;4991263;28;20052;-58
2021/12/15 07:32:09;;;;;;;3.17;2.73;;;;;;;5.77;100.00;100099.09;4988456;28;20026;-58
2021/12/15 07:34:35;;;;;;;3.73;3.03;;;;;;;5.82;100.00;100097.50;4987486;28;20031;-57
2021/12/15 07:37:01;;;;;;;5.17;3.20;;;;;;;5.77;100.00;100096.53;4995636;28;20035;-59
2021/12/15 07:39:27;;;;;;;3.03;2.47;;;;;;;5.86;100.00;100103.53;4995733;28;20854;-59
2021/12/15 07:42:03;;;;;;;4.77;3.50;;;;;;;5.74;100.00;100116.84;4990631;28;20061;-59
2021/12/15 07:44:29;;;;;;;4.10;3.27;;;;;;;5.90;100.00;100113.00;4990094;28;20030;-58
2021/12/15 07:46:54;;;;;;;4.10;2.93;;;;;;;5.85;100.00;100109.47;4994242;28;20645;-58
2021/12/15 07:49:22;;;;;;;4.60;3.53;;;;;;;5.87;100.00;100123.09;4991016;28;20111;-58
2021/12/15 07:51:52;;;;;;;3.67;2.73;;;;;;;5.87;100.00;100125.66;4988562;28;20420;-58
2021/12/15 07:54:19;;;;;;;6.97;4.80;;;;;;;5.83;100.00;100121.28;4988827;28;20172;-60
2021/12/15 07:56:45;;;;;;;8.17;5.07;;;;;;;5.93;100.00;100125.81;4992513;28;20066;-59
2021/12/15 07:59:11;;;;;;;7.70;4.93;;;;;;;5.87;100.00;100118.88;4989478;28;20037;-58
2021/12/15 08:01:37;;;;;;;4.40;3.00;;;;;;;5.86;100.00;100127.34;4991237;28;20653;-58
2021/12/15 08:04:03;;;;;;;4.33;3.70;;;;;;;5.88;100.00;100133.34;4989498;28;20068;-60
2021/12/15 08:06:28;;;;;;;2.93;2.67;;;;;;;5.95;100.00;100135.19;4993484;28;20033;-60
2021/12/15 08:08:54;;;;;;;4.50;3.20;;;;;;;5.85;100.00;100133.25;4990462;28;21004;-60
2021/12/15 08:11:20;;;;;;;3.00;2.70;;;;;;;5.91;100.00;100130.00;4988580;28;20148;-60
2021/12/15 08:13:46;;;;;;;4.53;2.43;;;;;;;5.90;100.00;100134.22;4992127;28;20449;-59
2021/12/15 08:16:14;;;;;;;2.87;2.60;;;;;;;5.87;100.00;100133.28;4992451;28;20026;-60
2021/12/15 08:18:40;;;;;;;2.97;2.70;;;;;;;5.89;100.00;100136.75;4989629;28;20049;-58
2021/12/15 08:21:07;;;;;;;3.73;2.67;;;;;;;5.85;100.00;100130.69;4989052;28;20582;-60
2021/12/15 08:23:33;;;;;;;3.20;2.90;;;;;;;5.82;100.00;100114.47;4993726;28;20053;-59
2021/12/15 08:25:59;;;;;;;3.47;2.73;;;;;;;5.96;100.00;100130.97;4994629;28;20415;-58
2021/12/15 08:28:25;;;;;;;3.70;3.13;;;;;;;6.03;100.00;100125.19;4984367;28;21224;-58
2021/12/15 08:30:51;;;;;;;3.10;2.63;;;;;;;6.05;100.00;100126.09;4987286;28;20045;-57
2021/12/15 08:33:19;;;;;;;2.60;2.30;;;;;;;6.10;100.00;100133.84;4984776;28;20025;-58
2021/12/15 08:35:48;;;;;;;3.20;2.57;;;;;;;6.11;100.00;100138.94;4995543;28;20023;-58
2021/12/15 08:38:15;;;;;;;3.60;3.00;;;;;;;6.13;100.00;100141.53;4991858;28;20030;-58
2021/12/15 08:40:41;;;;;;;3.80;2.57;;;;;;;6.13;100.00;100142.41;4997559;28;20112;-57
2021/12/15 08:43:07;;;;;;;2.50;2.30;;;;;;;6.14;100.00;100156.00;5000588;28;20038;-60
2021/12/15 08:45:36;;;;;;;3.07;2.60;;;;;;;6.17;100.00;100154.38;4996905;28;20022;-59
2021/12/15 08:48:04;;;;;;;3.63;2.70;;;;;;;6.12;100.00;100158.50;4992795;28;20033;-58
2021/12/15 08:50:32;;;;;;;5.00;2.97;;;;;;;6.21;100.00;100157.84;4993169;28;20394;-63
2021/12/15 08:52:58;;;;;;;3.17;2.87;;;;;;;6.23;100.00;100158.75;4994661;28;20037;-61
2021/12/15 08:55:25;;;;;;;3.23;2.57;;;;;;;6.22;100.00;100172.31;4995503;28;20548;-60
2021/12/15 08:57:54;;;;;;;2.93;2.60;;;;;;;6.24;100.00;100157.91;4993181;28;20145;-59
2021/12/15 09:00:22;;;;;;;3.47;2.90;;;;;;;6.28;100.00;100165.66;4997463;28;20739;-58
2021/12/15 09:02:48;;;;;;;3.53;2.70;;;;;;;6.31;100.00;100165.75;4999874;28;20034;-60
2021/12/15 09:05:20;;;;;;;2.80;2.57;;;;;;;6.27;100.00;100165.63;4995202;28;21038;-60
2021/12/15 09:07:51;;;;;;;3.03;2.37;;;;;;;6.22;100.00;100162.13;4995826;28;20424;-59
2021/12/15 09:10:17;;;;;;;4.33;2.87;;;;;;;6.33;100.00;100165.75;4999369;28;20042;-58
2021/12/15 09:12:42;;;;;;;3.23;2.30;;;;;;;6.31;100.00;100170.84;5000206;28;20026;-59
2021/12/15 09:15:08;;;;;;;2.93;2.67;;;;;;;6.27;100.00;100176.69;4996147;28;20034;-60
2021/12/15 09:17:34;;;;;;;5.53;2.47;;;;;;;6.20;100.00;100168.84;4992360;28;20500;-60
2021/12/15 09:19:59;;;;;;;3.23;2.40;;;;;;;6.20;100.00;100168.84;4996436;28;20045;-61
2021/12/15 09:22:25;;;;;;;2.93;2.40;;;;;;;6.33;100.00;100169.16;4995949;28;20033;-61
2021/12/15 09:24:51;;;;;;;4.40;2.70;;;;;;;6.39;100.00;100168.47;4993571;28;20026;-61
2021/12/15 09:27:16;;;;;;;6.87;3.10;;;;;;;6.32;100.00;100175.09;4991957;28;20622;-61
2021/12/15 09:29:42;;;;;;;3.50;2.33;;;;;;;6.30;100.00;100164.00;4995298;28;20025;-61
2021/12/15 09:32:07;;;;;;;4.73;2.60;;;;;;;6.39;100.00;100171.88;4994299;28;20379;-60
2021/12/15 09:34:33;;;;;;;3.37;2.70;;;;;;;6.38;100.00;100175.22;4991521;28;20096;-60
2021/12/15 09:36:59;;;;;;;2.87;2.23;;;;;;;6.35;100.00;100165.00;4990862;28;20121;-61
2021/12/15 09:39:25;;;;;;;3.13;2.83;;;;;;;6.44;100.00;100166.88;4983773;28;20029;-60
2021/12/15 09:41:51;;;;;;;3.50;3.00;;;;;;;6.44;100.00;100177.06;4993506;28;20045;-60
2021/12/15 09:44:21;;;;;;;4.53;2.63;;;;;;;6.42;100.00;100173.59;4992767;28;20034;-61
2021/12/15 10:01:53;;;;;;;4.17;3.50;;;;;;;6.53;100.00;100173.88;4992937;28;20568;-61
2021/12/15 10:03:14;;;;;;;2.63;2.40;;;;;;;6.60;100.00;100155.31;4989983;28;20108;-61
2021/12/15 10:05:49;;;;;;;3.38;2.75;;;;;;;6.70;100.00;100155.56;4990806;28;20236;-61
2021/12/15 10:19:27;;;;;;;4.97;2.80;;;;;;;6.67;100.00;100141.88;4993879;28;20097;-60
2021/12/15 10:22:06;;;;;;;3.27;2.60;;;;;;;6.76;100.00;100142.06;4988667;28;20089;-62
2021/12/15 10:24:45;;;;;;;5.70;3.30;;;;;;;6.83;100.00;100142.22;4993769;28;20103;-60
2021/12/15 10:27:14;;;;;;;4.80;3.33;;;;;;;6.80;100.00;100120.91;4997475;28;20042;-63
2021/12/15 10:30:07;;;;;;;7.03;3.83;;;;;;;6.87;100.00;100130.41;4993791;28;20396;-61
2021/12/15 10:32:35;;;;;;;4.20;2.70;;;;;;;6.81;100.00;100125.19;4988551;28;20031;-59
2021/12/15 10:35:05;;;;;;;6.03;3.20;;;;;;;6.90;100.00;100125.38;4991826;28;20113;-59
2021/12/15 10:37:30;;;;;;;2.97;2.67;;;;;;;6.74;100.00;100133.53;4993287;28;20500;-61
2021/12/15 10:40:11;;;;;;;3.50;2.90;;;;;;;6.96;100.00;100134.84;4990220;28;20097;-62
2021/12/15 10:42:37;;;;;;;2.77;2.47;;;;;;;6.78;100.00;100136.19;4989393;28;20109;-60
2021/12/15 10:45:08;;;;;;;5.77;3.10;;;;;;;6.95;100.00;100122.91;4993743;28;20121;-59
2021/12/15 10:47:48;;;;;;;8.03;3.67;;;;;;;7.01;100.00;100126.44;4993808;28;20030;-61
2021/12/15 10:50:18;;;;;;;12.80;4.77;;;;;;;7.11;100.00;100132.56;4990441;28;20034;-60
2021/12/15 10:52:53;;;;;;;4.57;2.47;;;;;;;6.93;100.00;100122.88;4988799;28;20077;-61
2021/12/15 10:55:19;;;;;;;5.00;2.50;;;;;;;6.95;100.00;100126.31;4992884;28;20038;-61
2021/12/15 10:57:44;;;;;;;4.53;2.60;;;;;;;7.02;100.00;100120.50;4989874;28;20063;-62
2021/12/15 11:00:14;;;;;;;2.27;2.07;;;;;;;6.95;100.00;100138.22;4990707;28;20042;-63
2021/12/15 11:02:40;;;;;;;2.60;2.30;;;;;;;7.02;100.00;100132.38;4989911;28;20053;-61
2021/12/15 11:05:15;;;;;;;6.33;2.80;;;;;;;7.14;100.00;100120.72;4991642;28;20455;-62
2021/12/15 11:07:46;;;;;;;3.65;2.70;;;;;;;7.22;100.00;100120.88;4991365;28;20512;-60
2021/12/15 11:10:44;;;;;;;2.57;2.27;;;;;;;7.14;100.00;100118.19;4988140;28;20037;-59
2021/12/15 11:13:13;;;;;;;2.60;2.03;;;;;;;7.07;100.00;100113.81;4973500;28;20230;-62
2021/12/15 11:15:50;;;;;;;2.80;2.30;;;;;;;7.09;100.00;100117.22;4992742;28;20351;-60
2021/12/15 11:18:20;;;;;;;4.57;2.40;;;;;;;7.09;100.00;100107.03;4990206;28;20034;-61
2021/12/15 11:20:59;;;;;;;3.77;2.47;;;;;;;7.25;100.00;100106.50;4988289;28;20034;-61
2021/12/15 11:23:27;;;;;;;5.23;2.73;;;;;;;7.33;100.00;100115.16;4993446;28;20397;-61
2021/12/15 11:25:54;;;;;;;3.20;2.37;;;;;;;7.52;100.00;100118.84;4995134;28;20027;-62
2021/12/15 11:28:43;;;;;;;2.63;2.43;;;;;;;7.48;100.00;100111.97;4989213;28;20038;-61
2021/12/15 11:31:16;;;;;;;5.00;2.23;;;;;;;7.34;100.00;100105.81;4992778;28;20041;-61
2021/12/15 11:33:46;;;;;;;5.07;2.13;;;;;;;7.30;100.00;100109.09;4995918;28;20511;-59
2021/12/15 11:36:25;;;;;;;3.13;1.90;;;;;;;7.33;100.00;100102.38;4991070;28;20420;-62
2021/12/15 11:39:08;;;;;;;1.80;1.70;;;;;;;7.25;100.00;100110.75;4988393;28;20069;-61
2021/12/15 11:41:43;;;;;;;2.83;1.97;;;;;;;7.33;100.00;100106.63;4991076;28;20061;-61
2021/12/15 11:44:12;;;;;;;5.93;2.47;;;;;;;7.31;100.00;100098.94;4992691;28;20042;-60
2021/12/15 11:46:46;;;;;;;3.20;2.00;;;;;;;7.43;100.00;100102.53;4990858;28;20042;-60
2021/12/15 11:49:17;;;;;;;1.80;1.60;;;;;;;7.27;100.00;100101.41;4987727;28;20038;-59
2021/12/15 11:52:14;;;;;;;2.53;1.70;;;;;;;7.23;100.00;100099.63;4992594;28;20276;-60
2021/12/15 11:54:49;;;;;;;1.87;1.47;;;;;;;7.27;100.00;100098.84;4986306;28;20422;-61
2021/12/15 11:57:27;;;;;;;1.73;1.63;;;;;;;7.26;100.00;100090.34;4991536;28;20387;-61
2021/12/15 11:59:59;;;;;;;3.77;1.93;;;;;;;7.20;100.00;100092.78;4988896;28;20115;-59
2021/12/15 12:02:31;;;;;;;2.00;1.90;;;;;;;7.39;100.00;100095.66;4995245;28;20034;-61
2021/12/15 12:05:00;;;;;;;2.67;2.07;;;;;;;7.43;100.00;100087.22;4990201;28;20040;-61
2021/12/15 12:07:31;;;;;;;2.00;1.70;;;;;;;7.27;100.00;100089.50;4989098;28;20037;-61
2021/12/15 12:10:09;;;;;;;1.60;1.50;;;;;;;7.36;100.00;100088.81;4990073;28;20030;-61
2021/12/15 12:12:41;;;;;;;5.40;1.60;;;;;;;7.30;100.00;100081.91;4990307;28;20153;-61
2021/12/15 12:15:12;;;;;;;1.60;1.50;;;;;;;7.31;100.00;100060.69;4993818;28;20461;-61
2021/12/15 12:17:39;;;;;;;5.17;2.13;;;;;;;7.38;100.00;100068.44;4993024;28;20021;-62
2021/12/15 12:20:11;;;;;;;2.83;2.20;;;;;;;7.45;100.00;100062.59;4996064;28;20046;-60
2021/12/15 12:22:39;;;;;;;3.23;1.90;;;;;;;7.53;100.00;100063.56;4995975;28;20034;-60
2021/12/15 12:25:13;;;;;;;3.03;2.17;;;;;;;7.53;100.00;100067.00;4994881;28;20037;-61
2021/12/15 12:27:39;;;;;;;1.75;1.50;;;;;;;7.48;100.00;100057.53;4999369;28;20524;-61
2021/12/15 12:30:11;;;;;;;4.97;1.97;;;;;;;7.39;100.00;100058.25;4996578;28;20042;-60
2021/12/15 12:32:36;;;;;;;3.23;1.80;;;;;;;7.38;100.00;100069.31;4997672;28;20457;-62
2021/12/15 12:35:05;;;;;;;2.90;1.77;;;;;;;7.46;100.00;100064.31;4991654;28;20038;-62
2021/12/15 12:37:31;;;;;;;2.73;1.83;;;;;;;7.54;100.00;100062.75;4992188;28;20049;-62
2021/12/15 12:40:04;;;;;;;3.07;2.23;;;;;;;7.54;100.00;100071.28;4994189;28;20243;-63
2021/12/15 12:42:34;;;;;;;2.03;1.83;;;;;;;7.77;100.00;100069.06;4993282;28;20569;-60
2021/12/15 12:45:18;;;;;;;1.77;1.63;;;;;;;7.69;100.00;100066.41;4991620;28;20031;-60